Time;durP1;ratioP1;P1;durP2;ratioP2;P2;SDS_P1;SDS_P2;PMS_P1;PMS_P2;Temp;Humidity;BMP_temperature;BMP_pressure;BME280_temperature;BME280_humidity;BME280_pressure;Samples;Min_cycle;Max_cycle;Signal;HPM_P1;HPM_P2
2022/06/29 00:02:19;;;;;;;7.25;4.00;;;16.60;99.90;;;;;;5000355;28;20038;-65
2022/06/29 00:04:45;;;;;;;6.38;3.90;;;16.50;99.90;;;;;;5011826;28;20038;-65
2022/06/29 00:07:11;;;;;;;9.38;3.78;;;16.40;99.90;;;;;;5002420;28;20170;-65
2022/06/29 00:09:36;;;;;;;5.60;3.90;;;16.40;99.90;;;;;;5004163;28;20486;-65
2022/06/29 00:12:02;;;;;;;5.13;4.00;;;16.30;99.90;;;;;;5011730;28;20543;-65
2022/06/29 00:14:28;;;;;;;6.65;4.00;;;16.30;99.90;;;;;;5007496;28;20045;-65
2022/06/29 00:16:53;;;;;;;6.10;4.10;;;16.20;99.90;;;;;;4993082;28;20031;-65
2022/06/29 00:19:19;;;;;;;6.20;4.10;;;16.20;99.90;;;;;;5011517;28;20452;-65
2022/06/29 00:21:45;;;;;;;5.10;3.95;;;16.20;99.90;;;;;;5011455;28;20536;-65
2022/06/29 00:24:11;;;;;;;5.57;4.18;;;16.20;99.90;;;;;;4991797;28;20029;-65
2022/06/29 00:26:36;;;;;;;5.75;4.10;;;16.10;99.90;;;;;;4993695;28;20478;-65
2022/06/29 00:29:02;;;;;;;7.90;4.07;;;16.10;99.90;;;;;;4995524;28;20052;-65
2022/06/29 00:31:28;;;;;;;6.95;4.15;;;16.10;99.90;;;;;;4994199;28;20030;-65
2022/06/29 00:33:54;;;;;;;6.85;4.07;;;16.00;99.90;;;;;;5000307;28;20113;-65
2022/06/29 00:36:19;;;;;;;6.70;4.07;;;16.00;99.90;;;;;;4993768;28;20046;-65
2022/06/29 00:38:45;;;;;;;4.75;4.00;;;15.90;99.90;;;;;;5011409;28;20041;-65
2022/06/29 00:41:11;;;;;;;6.68;3.80;;;15.80;99.90;;;;;;4991180;28;20125;-65
2022/06/29 00:43:43;;;;;;;6.43;3.88;;;15.70;99.90;;;;;;4993662;28;20037;-65
2022/06/29 00:46:09;;;;;;;7.68;4.28;;;15.60;99.90;;;;;;4997108;28;20034;-65
2022/06/29 00:48:38;;;;;;;6.45;4.53;;;15.50;99.90;;;;;;5000624;28;20037;-65
2022/06/29 00:51:04;;;;;;;8.77;4.97;;;15.50;99.90;;;;;;4994878;28;20109;-65
2022/06/29 00:53:37;;;;;;;11.90;4.60;;;15.60;99.90;;;;;;5011048;28;20033;-65
2022/06/29 00:56:07;;;;;;;6.45;4.75;;;15.60;99.90;;;;;;5008164;28;20045;-65
2022/06/29 00:58:33;;;;;;;6.82;4.72;;;15.60;99.90;;;;;;4985201;28;20049;-65
2022/06/29 01:01:04;;;;;;;7.25;4.45;;;15.60;99.90;;;;;;5013699;28;20038;-65
2022/06/29 01:03:32;;;;;;;7.07;4.43;;;15.60;99.90;;;;;;5015184;28;20511;-65
2022/06/29 01:06:00;;;;;;;6.72;4.75;;;15.60;99.90;;;;;;4989379;28;20056;-65
2022/06/29 01:08:26;;;;;;;8.85;4.75;;;15.60;99.90;;;;;;5011824;28;20037;-65
2022/06/29 01:10:51;;;;;;;8.02;4.88;;;15.60;99.90;;;;;;5014800;28;20210;-65
2022/06/29 01:13:17;;;;;;;4.97;4.40;;;15.60;99.90;;;;;;5004745;28;20041;-65
2022/06/29 01:15:43;;;;;;;8.10;4.88;;;15.50;99.90;;;;;;4986811;28;20076;-65
2022/06/29 01:18:08;;;;;;;6.68;4.75;;;15.50;99.90;;;;;;5014861;28;20045;-65
2022/06/29 01:20:34;;;;;;;6.25;4.65;;;15.40;99.90;;;;;;5014497;28;20037;-65
2022/06/29 01:23:00;;;;;;;6.90;4.95;;;15.40;99.90;;;;;;4986812;28;20165;-65
2022/06/29 01:25:25;;;;;;;6.65;5.18;;;15.30;99.90;;;;;;5010379;28;20041;-65
2022/06/29 01:27:51;;;;;;;9.55;5.30;;;15.30;99.90;;;;;;5014588;28;20056;-65
2022/06/29 01:30:17;;;;;;;7.22;4.97;;;15.30;99.90;;;;;;4987285;28;20085;-65
2022/06/29 01:32:43;;;;;;;7.68;5.10;;;15.30;99.90;;;;;;4994786;28;20041;-65
2022/06/29 01:35:12;;;;;;;5.47;4.97;;;15.30;99.90;;;;;;5014623;28;20105;-65
2022/06/29 01:37:42;;;;;;;8.07;4.90;;;15.30;99.90;;;;;;4999877;28;20040;-65
2022/06/29 01:40:09;;;;;;;8.60;5.50;;;15.20;99.90;;;;;;4994268;28;20039;-65
2022/06/29 01:42:35;;;;;;;7.60;5.60;;;15.30;99.90;;;;;;5010667;28;20084;-65
2022/06/29 01:45:00;;;;;;;7.82;5.63;;;15.30;99.90;;;;;;5014331;28;20037;-65
2022/06/29 01:47:26;;;;;;;7.70;5.45;;;15.30;99.90;;;;;;5005039;28;20086;-65
2022/06/29 01:49:52;;;;;;;6.25;5.38;;;15.20;99.90;;;;;;4995710;28;20173;-65
2022/06/29 01:52:17;;;;;;;7.32;5.75;;;15.20;99.90;;;;;;5014104;28;20065;-65
2022/06/29 01:54:43;;;;;;;6.65;5.53;;;15.10;99.90;;;;;;5007186;28;20045;-65
2022/06/29 01:57:09;;;;;;;8.35;5.95;;;15.10;99.90;;;;;;4997631;28;20037;-65
2022/06/29 01:59:35;;;;;;;7.07;5.60;;;15.20;99.90;;;;;;5014019;28;20116;-65
2022/06/29 02:02:00;;;;;;;13.23;6.32;;;15.10;99.90;;;;;;5013969;28;20117;-65
2022/06/29 02:04:26;;;;;;;8.30;6.63;;;15.10;99.90;;;;;;4983304;28;20082;-65
2022/06/29 02:06:52;;;;;;;8.63;6.15;;;15.10;99.90;;;;;;4982415;28;20418;-65
2022/06/29 02:09:17;;;;;;;8.35;6.13;;;15.00;99.90;;;;;;5013727;28;20393;-65
2022/06/29 02:11:43;;;;;;;8.43;6.15;;;15.10;99.90;;;;;;5003855;28;20104;-65
2022/06/29 02:14:09;;;;;;;6.72;6.05;;;15.00;99.90;;;;;;5004217;28;20034;-65
2022/06/29 02:16:34;;;;;;;10.18;6.10;;;15.00;99.90;;;;;;5013323;28;20188;-65
2022/06/29 02:19:00;;;;;;;7.97;5.60;;;14.80;99.90;;;;;;5010772;28;20042;-65
2022/06/29 02:21:26;;;;;;;6.75;5.30;;;14.80;99.90;;;;;;4990413;28;20110;-65
2022/06/29 02:23:51;;;;;;;8.52;5.68;;;14.60;99.90;;;;;;5010307;28;20045;-65
2022/06/29 02:26:17;;;;;;;6.72;5.50;;;14.60;99.90;;;;;;5013734;28;20045;-65
2022/06/29 02:28:43;;;;;;;9.00;5.38;;;14.60;99.90;;;;;;4998853;28;20130;-65
2022/06/29 02:36:37;;;;;;;5.80;5.15;;;14.50;99.90;;;;;;5000968;28;20043;-65
2022/06/29 02:39:03;;;;;;;6.00;5.40;;;14.50;99.90;;;;;;4994436;28;20026;-65
2022/06/29 02:41:28;;;;;;;6.85;5.65;;;14.50;99.90;;;;;;4995343;28;20482;-65
2022/06/29 02:43:54;;;;;;;8.95;6.05;;;14.40;99.90;;;;;;5013312;28;20065;-65
2022/06/29 02:46:20;;;;;;;10.07;5.82;;;14.40;99.90;;;;;;4997256;28;20065;-65
2022/06/29 02:48:45;;;;;;;7.97;6.28;;;14.50;99.90;;;;;;5009907;28;20117;-65
2022/06/29 02:51:11;;;;;;;10.57;5.82;;;14.50;99.90;;;;;;4997623;28;20499;-65
2022/06/29 02:53:37;;;;;;;6.97;6.20;;;14.40;99.90;;;;;;4986453;28;20510;-65
2022/06/29 02:56:03;;;;;;;7.15;5.55;;;14.40;99.90;;;;;;4998297;28;20052;-65
2022/06/29 02:58:28;;;;;;;7.32;6.28;;;14.40;99.90;;;;;;4985925;28;20117;-65
2022/06/29 03:00:54;;;;;;;7.05;5.78;;;14.40;99.90;;;;;;4982712;28;20118;-65
2022/06/29 03:03:20;;;;;;;7.70;5.70;;;14.30;99.90;;;;;;4985326;28;20038;-65
2022/06/29 03:05:45;;;;;;;9.38;6.78;;;14.20;99.90;;;;;;4989528;28;20125;-65
2022/06/29 03:08:11;;;;;;;10.43;7.18;;;14.20;99.90;;;;;;4984228;28;20421;-64
2022/06/29 03:10:37;;;;;;;9.38;7.47;;;14.20;99.90;;;;;;4981066;28;20094;-64
2022/06/29 03:13:02;;;;;;;12.45;8.50;;;14.10;99.90;;;;;;4984075;28;20053;-65
2022/06/29 03:15:28;;;;;;;8.95;8.02;;;14.00;99.90;;;;;;4989328;28;20034;-65
2022/06/29 03:17:54;;;;;;;9.88;8.13;;;14.00;99.90;;;;;;4989533;28;20050;-65
2022/06/29 03:20:20;;;;;;;11.90;8.52;;;14.00;99.90;;;;;;4969929;28;20041;-65
2022/06/29 03:22:46;;;;;;;11.10;8.95;;;14.10;99.90;;;;;;5007746;28;20133;-65
2022/06/29 03:25:16;;;;;;;11.57;8.38;;;14.10;99.90;;;;;;5012690;28;20483;-65
2022/06/29 03:27:42;;;;;;;10.07;8.85;;;14.10;99.90;;;;;;5002743;28;20100;-65
2022/06/29 03:30:09;;;;;;;13.55;9.38;;;14.10;99.90;;;;;;4989329;28;20052;-65
2022/06/29 03:32:34;;;;;;;11.25;8.80;;;14.20;99.90;;;;;;5005257;28;20454;-64
2022/06/29 03:35:00;;;;;;;11.70;8.68;;;14.20;99.90;;;;;;4994520;28;20030;-65
2022/06/29 03:37:26;;;;;;;10.45;8.40;;;14.20;99.90;;;;;;4998991;28;20112;-65
2022/06/29 03:39:51;;;;;;;12.23;9.25;;;14.10;99.90;;;;;;5011599;28;20038;-65
2022/06/29 03:42:17;;;;;;;10.82;8.70;;;14.20;99.90;;;;;;5012307;28;20048;-65
2022/06/29 03:44:43;;;;;;;12.30;9.10;;;14.10;99.90;;;;;;4996701;28;20053;-65
2022/06/29 03:47:08;;;;;;;10.57;8.70;;;14.10;99.90;;;;;;5002981;28;20034;-65
2022/06/29 03:49:37;;;;;;;11.55;9.18;;;14.10;99.90;;;;;;4997423;28;20034;-65
2022/06/29 03:52:04;;;;;;;13.75;9.40;;;14.10;99.90;;;;;;4989621;28;20121;-65
2022/06/29 03:54:29;;;;;;;11.32;8.60;;;14.20;99.90;;;;;;4994573;28;20033;-65
2022/06/29 03:56:56;;;;;;;11.18;8.82;;;14.20;99.90;;;;;;4994141;28;20049;-64
2022/06/29 03:59:21;;;;;;;12.85;9.75;;;14.20;99.90;;;;;;5006965;28;20425;-65
2022/06/29 04:01:47;;;;;;;13.95;10.18;;;14.30;99.90;;;;;;5001737;28;20502;-65
2022/06/29 04:04:13;;;;;;;11.02;9.30;;;14.30;99.90;;;;;;4992645;28;20053;-65
2022/06/29 04:06:40;;;;;;;13.15;9.43;;;14.30;99.90;;;;;;4973076;28;20097;-65
2022/06/29 04:09:06;;;;;;;11.80;9.07;;;14.30;99.90;;;;;;4972454;28;20066;-64
2022/06/29 04:11:51;;;;;;;11.30;8.77;;;14.30;99.90;;;;;;4989607;28;20686;-64
2022/06/29 04:14:21;;;;;;;10.98;9.70;;;14.40;99.90;;;;;;4999219;28;20448;-64
2022/06/29 04:16:47;;;;;;;17.00;10.10;;;14.40;99.90;;;;;;4995077;28;20442;-65
2022/06/29 04:19:13;;;;;;;10.23;9.23;;;14.40;99.90;;;;;;4966824;28;20125;-65
2022/06/29 04:21:38;;;;;;;12.27;9.82;;;14.40;99.90;;;;;;4979172;28;20054;-65
2022/06/29 04:24:05;;;;;;;12.93;9.18;;;14.40;99.90;;;;;;4983960;28;20038;-65
2022/06/29 04:26:30;;;;;;;12.20;10.13;;;14.50;99.90;;;;;;4991609;28;20065;-65
2022/06/29 04:28:56;;;;;;;12.02;9.93;;;14.50;99.90;;;;;;5009081;28;20076;-65
2022/06/29 04:31:21;;;;;;;12.73;9.63;;;14.60;99.90;;;;;;5011485;28;20045;-64
2022/06/29 04:33:47;;;;;;;12.18;10.05;;;14.70;99.90;;;;;;5008386;28;20053;-64
2022/06/29 04:36:13;;;;;;;11.50;9.68;;;14.70;99.90;;;;;;4992774;28;20086;-65
2022/06/29 04:38:38;;;;;;;12.52;10.02;;;14.80;99.90;;;;;;4986702;28;20105;-65
2022/06/29 04:41:04;;;;;;;11.68;10.05;;;14.90;99.90;;;;;;4994528;28;20509;-65
2022/06/29 04:43:30;;;;;;;11.88;10.20;;;14.90;99.90;;;;;;4994648;28;20050;-65
2022/06/29 04:48:41;;;;;;;14.05;10.90;;;15.10;99.90;;;;;;5017881;28;20042;-65
2022/06/29 04:51:07;;;;;;;13.80;10.57;;;15.10;99.90;;;;;;5006171;28;20041;-65
2022/06/29 04:53:33;;;;;;;11.80;10.35;;;15.20;99.90;;;;;;5000043;28;20529;-65
2022/06/29 04:55:59;;;;;;;11.93;10.35;;;15.30;99.90;;;;;;4993266;28;20034;-64
2022/06/29 04:58:25;;;;;;;12.95;10.50;;;15.30;99.90;;;;;;4990021;28;20039;-65
2022/06/29 05:00:51;;;;;;;14.88;10.60;;;15.40;99.90;;;;;;4986257;28;20042;-64
2022/06/29 05:03:16;;;;;;;12.43;11.13;;;15.40;99.90;;;;;;5017315;28;20041;-65
2022/06/29 05:05:47;;;;;;;17.45;11.60;;;15.50;99.90;;;;;;5031851;22;20508;-67
2022/06/29 05:08:15;;;;;;;13.48;11.85;;;15.60;99.90;;;;;;4969520;28;20034;-66
2022/06/29 05:10:42;;;;;;;14.52;11.55;;;15.60;99.90;;;;;;4980464;28;20050;-66
2022/06/29 05:13:16;;;;;;;15.00;12.30;;;15.70;99.90;;;;;;4983570;28;20065;-67
2022/06/29 05:15:42;;;;;;;15.98;11.98;;;15.80;99.90;;;;;;4998009;28;20132;-67
2022/06/29 05:18:08;;;;;;;13.40;11.85;;;15.80;99.90;;;;;;4997892;28;20089;-66
2022/06/29 05:20:33;;;;;;;15.15;12.35;;;15.90;99.90;;;;;;4997804;28;20034;-66
2022/06/29 05:22:59;;;;;;;15.15;11.60;;;16.00;99.90;;;;;;4981631;28;20038;-66
2022/06/29 05:33:16;;;;;;;13.85;12.35;;;16.30;99.90;;;;;;5160697;22;20054;-70
2022/06/29 05:35:42;;;;;;;13.48;12.10;;;16.40;99.90;;;;;;4958049;28;20474;-70
2022/06/29 05:38:08;;;;;;;13.23;11.60;;;16.50;99.90;;;;;;4953464;28;20049;-69
2022/06/29 06:01:31;;;;;;;12.27;10.90;;;17.20;99.90;;;;;;5224455;22;20054;-69
2022/06/29 06:03:56;;;;;;;29.08;11.40;;;17.30;99.90;;;;;;4973832;28;20112;-67
2022/06/29 06:38:03;;;;;;;9.23;8.25;;;18.60;99.90;;;;;;5306123;22;25070;-69
2022/06/29 06:45:42;;;;;;;10.25;8.10;;;18.90;99.90;;;;;;4959051;28;20538;-69
2022/06/29 06:48:08;;;;;;;12.93;8.23;;;19.00;99.90;;;;;;4953799;28;20043;-69
2022/06/29 06:50:34;;;;;;;9.57;8.30;;;19.10;99.90;;;;;;4945682;28;20082;-69
2022/06/29 06:52:59;;;;;;;9.93;8.48;;;19.20;99.90;;;;;;4973614;28;20035;-69
2022/06/29 06:55:25;;;;;;;9.02;8.13;;;19.30;99.90;;;;;;4965987;28;20078;-69
2022/06/29 07:06:26;;;;;;;9.50;8.10;;;19.60;99.90;;;;;;5173529;22;20092;-69
2022/06/29 07:22:21;;;;;;;9.43;6.43;;;19.60;99.90;;;;;;6046735;22;20008;-69
2022/06/29 07:24:47;;;;;;;8.68;7.85;;;19.60;99.90;;;;;;4990970;28;20378;-69
2022/06/29 07:27:12;;;;;;;10.85;7.60;;;19.60;99.90;;;;;;4991894;28;20147;-69
2022/06/29 07:34:57;;;;;;;9.82;8.00;;;20.00;99.90;;;;;;5706297;22;20267;-69
2022/06/29 07:37:22;;;;;;;8.00;7.15;;;20.20;99.90;;;;;;4987484;28;20040;-68
2022/06/29 07:39:48;;;;;;;11.18;6.85;;;20.30;99.90;;;;;;4994507;28;20034;-68
2022/06/29 07:42:14;;;;;;;8.98;6.80;;;20.60;99.90;;;;;;4994303;28;20039;-69
2022/06/29 07:44:39;;;;;;;8.23;5.90;;;20.70;99.90;;;;;;4991575;28;20444;-69
2022/06/29 07:47:05;;;;;;;7.75;6.35;;;21.00;99.90;;;;;;4986169;28;21098;-68
2022/06/29 07:59:53;;;;;;;7.45;5.43;;;21.80;99.90;;;;;;6063256;22;20005;-69
2022/06/29 08:02:18;;;;;;;7.13;5.72;;;21.90;99.90;;;;;;4958178;28;20532;-68
2022/06/29 08:04:44;;;;;;;6.10;5.50;;;21.90;99.90;;;;;;5001184;28;20042;-68
2022/06/29 08:15:07;;;;;;;8.55;4.97;;;22.30;99.90;;;;;;5190716;22;20098;-68
2022/06/29 08:17:33;;;;;;;8.57;4.90;;;22.40;99.90;;;;;;4990933;28;20038;-68
2022/06/29 08:19:59;;;;;;;7.22;4.40;;;22.40;99.90;;;;;;4979848;28;20095;-68
2022/06/29 08:22:25;;;;;;;5.32;4.20;;;22.50;99.90;;;;;;4990821;28;20402;-68
2022/06/29 08:24:51;;;;;;;9.00;3.90;;;22.50;99.90;;;;;;4973170;28;20046;-68
2022/06/29 08:27:23;;;;;;;5.10;4.13;;;22.60;98.90;;;;;;4972180;28;20044;-68
2022/06/29 08:47:49;;;;;;;5.22;3.50;;;23.80;96.80;;;;;;4959785;28;20051;-68
2022/06/29 08:50:15;;;;;;;6.13;3.30;;;23.80;97.20;;;;;;4950708;28;20044;-68
2022/06/29 08:52:43;;;;;;;6.35;3.85;;;24.00;96.60;;;;;;4954026;28;20581;-69
2022/06/29 08:55:09;;;;;;;5.97;3.80;;;24.10;97.50;;;;;;4957811;28;20050;-67
2022/06/29 08:57:36;;;;;;;12.23;4.00;;;24.30;97.30;;;;;;4964060;28;20041;-68
2022/06/29 09:02:38;;;;;;;4.45;3.55;;;24.40;94.60;;;;;;5660160;22;20457;-67
2022/06/29 09:07:45;;;;;;;7.28;3.60;;;24.00;91.90;;;;;;5079285;22;20049;-70
2022/06/29 09:10:17;;;;;;;6.53;3.63;;;23.70;95.00;;;;;;4995701;28;20034;-68
2022/06/29 09:12:49;;;;;;;7.97;3.50;;;23.50;95.60;;;;;;4970239;28;20408;-68
2022/06/29 09:15:15;;;;;;;5.50;3.65;;;23.40;95.90;;;;;;5000723;28;20052;-69
2022/06/29 09:30:40;;;;;;;5.40;3.90;;;24.00;97.50;;;;;;5941948;22;20119;-67
2022/06/29 09:33:07;;;;;;;8.13;4.50;;;24.00;98.60;;;;;;4984422;28;20046;-67
2022/06/29 10:04:02;;;;;;;5.30;3.83;;;25.10;97.10;;;;;;5501758;22;20069;-67
2022/06/29 10:22:01;;;;;;;6.75;4.80;;;25.80;96.00;;;;;;5534809;22;20049;-65
2022/06/29 10:38:00;;;;;;;8.48;5.10;;;26.60;94.40;;;;;;5295884;22;20054;-67
2022/06/29 10:48:13;;;;;;;7.93;4.75;;;25.90;95.30;;;;;;5539635;22;20090;-66
2022/06/29 10:50:40;;;;;;;6.72;4.78;;;25.90;96.10;;;;;;5005532;28;20060;-66
2022/06/29 10:53:09;;;;;;;8.45;4.78;;;25.90;95.60;;;;;;4987913;28;20037;-67
2022/06/29 10:55:55;;;;;;;9.77;4.68;;;25.90;95.30;;;;;;5000496;28;20042;-69
2022/06/29 10:58:22;;;;;;;5.57;4.40;;;25.90;95.30;;;;;;4996133;28;20042;-68
2022/06/29 11:00:53;;;;;;;8.02;5.05;;;26.00;96.00;;;;;;4994217;28;20087;-69
2022/06/29 11:21:29;;;;;;;6.75;4.88;;;26.90;95.20;;;;;;5476324;22;20065;-67
2022/06/29 11:24:03;;;;;;;10.35;5.75;;;27.00;95.40;;;;;;4992085;28;20038;-68
2022/06/29 12:05:24;;;;;;;6.90;5.22;;;27.50;92.60;;;;;;5045884;22;20057;-66
2022/06/29 12:07:49;;;;;;;11.07;5.32;;;27.40;92.40;;;;;;5008735;28;20537;-66
2022/06/29 12:28:23;;;;;;;9.50;6.47;;;27.80;92.30;;;;;;5747106;22;20421;-66
2022/06/29 12:30:48;;;;;;;14.65;5.55;;;28.00;92.90;;;;;;4992035;28;20042;-66
2022/06/29 12:48:46;;;;;;;8.75;6.40;;;28.50;89.40;;;;;;5476283;22;20050;-67
2022/06/29 12:51:12;;;;;;;7.68;6.18;;;28.60;87.90;;;;;;4987427;28;20034;-66
2022/06/29 12:53:38;;;;;;;9.55;5.57;;;29.00;90.50;;;;;;4990237;28;20030;-67
2022/06/29 13:11:36;;;;;;;6.93;5.47;;;29.40;86.50;;;;;;5158736;22;20058;-68
2022/06/29 13:14:02;;;;;;;6.57;5.72;;;29.30;84.80;;;;;;4970067;28;20100;-67
2022/06/29 13:34:35;;;;;;;6.57;4.90;;;29.30;82.20;;;;;;5812385;22;20403;-66
2022/06/29 13:37:01;;;;;;;9.90;5.00;;;29.70;82.10;;;;;;5007715;28;20040;-66
2022/06/29 13:39:27;;;;;;;10.52;6.47;;;29.80;84.00;;;;;;5027884;28;20041;-66
2022/06/29 13:52:14;;;;;;;9.93;5.25;;;30.40;78.80;;;;;;4396688;26;20050;-70
2022/06/29 13:59:50;;;;;;;5.78;4.60;;;30.60;76.60;;;;;;5378135;22;20054;-67
2022/06/29 14:02:16;;;;;;;6.82;4.22;;;30.80;78.70;;;;;;4993256;28;20030;-67
2022/06/29 14:04:41;;;;;;;5.78;3.92;;;31.00;77.10;;;;;;4966488;28;20114;-68
2022/06/29 14:07:07;;;;;;;5.55;4.30;;;31.40;76.70;;;;;;5001150;28;20034;-68
2022/06/29 14:09:33;;;;;;;9.07;4.90;;;31.40;72.60;;;;;;4988088;28;20041;-68
2022/06/29 14:11:59;;;;;;;5.97;4.03;;;31.70;74.80;;;;;;4985199;28;20486;-68
2022/06/29 14:58:26;;;;;;;7.65;3.60;;;32.90;58.50;;;;;;5799666;22;20466;-68
2022/06/29 15:00:52;;;;;;;8.50;3.30;;;32.70;58.40;;;;;;4962834;28;20502;-67
2022/06/29 15:03:19;;;;;;;7.57;3.65;;;32.90;60.00;;;;;;4983962;28;20030;-67
2022/06/29 15:05:45;;;;;;;4.15;3.40;;;32.90;58.30;;;;;;4982927;28;20039;-68
2022/06/29 15:08:10;;;;;;;5.20;3.45;;;32.90;56.90;;;;;;4965450;28;20097;-67
2022/06/29 15:10:36;;;;;;;3.92;3.15;;;32.80;55.20;;;;;;4954750;28;20549;-67
2022/06/29 15:52:07;;;;;;;3.78;2.78;;;33.10;51.00;;;;;;5446928;22;20100;-68
2022/06/29 16:13:14;;;;;;;4.32;2.85;;;34.60;49.30;;;;;;5469205;22;20187;-67
2022/06/29 16:15:40;;;;;;;4.47;2.80;;;34.90;48.30;;;;;;4999883;28;20090;-65
2022/06/29 16:33:38;;;;;;;6.43;3.30;;;36.50;47.80;;;;;;5250513;22;20089;-67
2022/06/29 16:36:04;;;;;;;5.22;2.92;;;36.00;47.30;;;;;;4998365;28;20038;-66
2022/06/29 16:38:29;;;;;;;3.75;3.30;;;35.40;47.30;;;;;;4993274;28;20046;-67
2022/06/29 16:40:55;;;;;;;5.18;3.10;;;35.40;47.50;;;;;;5035261;22;20109;-67
2022/06/29 16:51:55;;;;;;;6.65;3.03;;;35.00;46.10;;;;;;5907190;22;19925;-67
2022/06/29 16:54:20;;;;;;;4.65;3.20;;;34.40;46.10;;;;;;4986935;28;20130;-66
2022/06/29 16:56:48;;;;;;;4.88;3.60;;;33.70;46.60;;;;;;4985082;28;20058;-66
2022/06/29 16:59:14;;;;;;;5.45;3.50;;;33.20;47.20;;;;;;4988254;28;20048;-66
2022/06/29 17:01:39;;;;;;;5.22;2.97;;;32.60;47.60;;;;;;4987872;28;20035;-66
2022/06/29 17:04:05;;;;;;;4.38;3.47;;;32.40;47.90;;;;;;4983889;28;20038;-66
2022/06/29 17:06:31;;;;;;;4.75;3.10;;;32.10;48.40;;;;;;4986002;28;20507;-66
2022/06/29 17:08:57;;;;;;;5.20;3.30;;;32.00;48.70;;;;;;4995425;28;20042;-67
2022/06/29 17:11:23;;;;;;;5.28;3.15;;;31.80;48.80;;;;;;4985978;28;20034;-67
2022/06/29 17:13:48;;;;;;;3.92;3.35;;;31.50;48.40;;;;;;4980869;28;20054;-67
2022/06/29 17:16:14;;;;;;;6.00;3.40;;;31.40;49.00;;;;;;4969545;28;20040;-66
2022/06/29 17:18:40;;;;;;;6.60;3.55;;;31.70;49.50;;;;;;4985744;28;20521;-67
2022/06/29 17:21:05;;;;;;;4.85;3.78;;;32.30;50.60;;;;;;4985381;28;20030;-67
2022/06/29 17:23:31;;;;;;;4.05;3.08;;;33.30;50.10;;;;;;4996030;28;20057;-67
2022/06/29 17:25:57;;;;;;;6.45;3.17;;;34.20;48.40;;;;;;4997072;28;20445;-67
2022/06/29 17:28:23;;;;;;;4.60;3.40;;;34.80;48.20;;;;;;4978603;28;20049;-66
2022/06/29 17:30:49;;;;;;;6.40;3.70;;;35.40;47.20;;;;;;4997465;28;20042;-67
2022/06/29 17:33:14;;;;;;;7.93;3.15;;;35.40;45.90;;;;;;4991169;28;20076;-67
2022/06/29 17:35:40;;;;;;;3.67;3.10;;;35.30;45.80;;;;;;4997672;28;20129;-67
2022/06/29 17:38:06;;;;;;;4.88;3.20;;;35.00;46.50;;;;;;4990677;28;20129;-67
2022/06/29 17:40:31;;;;;;;7.32;3.45;;;34.70;45.70;;;;;;4965303;28;20494;-67
2022/06/29 17:42:57;;;;;;;8.32;3.50;;;34.60;46.10;;;;;;4976106;28;20042;-67
2022/06/29 17:45:23;;;;;;;4.15;3.10;;;34.60;45.80;;;;;;4985890;28;20030;-67
2022/06/29 17:47:48;;;;;;;6.70;2.90;;;34.80;45.30;;;;;;4992678;28;20038;-67
2022/06/29 17:50:14;;;;;;;4.25;2.90;;;35.30;45.20;;;;;;5001933;28;20042;-66
2022/06/29 17:52:40;;;;;;;5.32;2.80;;;35.60;45.60;;;;;;4991866;28;20045;-67
2022/06/29 17:55:06;;;;;;;5.43;3.20;;;35.30;45.10;;;;;;4999900;28;20078;-66
2022/06/29 17:57:32;;;;;;;4.90;2.92;;;34.90;45.30;;;;;;5000261;28;20045;-67
2022/06/29 17:59:57;;;;;;;4.40;2.70;;;34.80;45.90;;;;;;4989143;28;20488;-67
2022/06/29 18:02:23;;;;;;;4.35;2.70;;;35.20;45.90;;;;;;4989193;28;20034;-67
2022/06/29 18:04:52;;;;;;;5.70;2.78;;;35.40;46.00;;;;;;4991494;28;20050;-68
2022/06/29 18:07:19;;;;;;;8.25;3.65;;;35.40;45.70;;;;;;4966619;28;20069;-67
2022/06/29 18:09:46;;;;;;;4.97;3.05;;;35.30;46.60;;;;;;4987939;28;20501;-67
2022/06/29 18:12:13;;;;;;;5.70;3.00;;;35.30;45.70;;;;;;4982861;28;20038;-67
2022/06/29 18:30:11;;;;;;;3.70;3.10;;;33.80;46.30;;;;;;5391396;22;20062;-66
2022/06/29 18:35:12;;;;;;;7.35;3.80;;;33.40;47.00;;;;;;5725652;22;20050;-66
2022/06/29 19:22:01;;;;;;;5.35;4.85;;;29.40;64.40;;;;;;5145135;22;20053;-65
2022/06/29 19:37:23;;;;;;;7.10;5.35;;;28.60;81.80;;;;;;5527386;22;20634;-66
2022/06/29 19:39:49;;;;;;;6.18;5.53;;;28.40;84.20;;;;;;4998209;28;20053;-66
2022/06/29 19:42:15;;;;;;;7.22;5.45;;;28.10;86.10;;;;;;4985416;28;20081;-67
2022/06/29 19:52:55;;;;;;;6.80;6.18;;;27.10;91.50;;;;;;5111384;22;20065;-66
2022/06/29 20:05:45;;;;;;;8.18;6.82;;;26.00;94.20;;;;;;6075407;22;20158;-65
2022/06/29 20:08:10;;;;;;;6.82;6.10;;;25.90;94.30;;;;;;4991421;28;20030;-66
2022/06/29 20:10:36;;;;;;;6.45;5.85;;;25.70;94.40;;;;;;4991231;28;20042;-67
2022/06/29 20:13:01;;;;;;;6.85;6.22;;;25.60;94.70;;;;;;4979174;28;20038;-66
2022/06/29 20:15:27;;;;;;;7.00;6.30;;;25.40;95.00;;;;;;5001244;28;20057;-65
2022/06/29 20:17:53;;;;;;;9.13;6.60;;;25.30;94.80;;;;;;4990194;28;20034;-67
2022/06/29 20:20:19;;;;;;;9.13;6.28;;;25.20;94.70;;;;;;4991074;28;20100;-67
2022/06/29 20:22:45;;;;;;;7.95;6.28;;;25.00;94.60;;;;;;5016834;22;20046;-62
2022/06/29 20:25:10;;;;;;;11.88;7.10;;;25.00;94.50;;;;;;5006265;28;20509;-62
2022/06/29 20:27:36;;;;;;;10.00;6.57;;;24.90;94.70;;;;;;5005946;28;20460;-63
2022/06/29 20:30:06;;;;;;;7.30;6.50;;;24.80;94.90;;;;;;4998689;28;20466;-62
2022/06/29 20:32:33;;;;;;;7.05;6.45;;;24.60;95.50;;;;;;4994305;28;20030;-62
2022/06/29 20:34:59;;;;;;;7.95;6.80;;;24.60;95.20;;;;;;4993830;28;20483;-63
2022/06/29 20:37:25;;;;;;;7.55;6.80;;;24.60;95.20;;;;;;4991216;28;20117;-62
2022/06/29 20:39:51;;;;;;;8.82;6.13;;;24.40;95.40;;;;;;4993440;28;20607;-62
2022/06/29 20:42:16;;;;;;;9.25;7.05;;;24.30;95.60;;;;;;4973218;28;20038;-63
2022/06/29 20:47:28;;;;;;;9.57;7.28;;;24.20;96.40;;;;;;4991046;28;20039;-63
2022/06/29 20:49:53;;;;;;;8.00;7.30;;;24.10;97.10;;;;;;4991355;28;20049;-63
2022/06/29 20:52:19;;;;;;;8.98;7.28;;;24.20;97.20;;;;;;4996130;28;20034;-63
2022/06/29 20:54:44;;;;;;;9.63;7.10;;;24.20;97.60;;;;;;4990983;28;20042;-63
2022/06/29 20:57:12;;;;;;;7.25;6.55;;;24.20;97.90;;;;;;4990974;28;20494;-63
2022/06/29 20:59:38;;;;;;;10.70;7.72;;;24.10;98.00;;;;;;5003338;28;20042;-63
2022/06/29 21:02:05;;;;;;;7.65;6.90;;;24.00;98.10;;;;;;4999845;28;20038;-63
2022/06/29 21:04:30;;;;;;;7.97;6.80;;;24.00;98.20;;;;;;4988827;28;20052;-64
2022/06/29 21:06:57;;;;;;;7.50;6.80;;;24.00;98.40;;;;;;4995324;28;20093;-64
2022/06/29 21:09:24;;;;;;;9.82;6.93;;;23.90;98.60;;;;;;4991300;28;20101;-63
2022/06/29 21:11:50;;;;;;;7.88;6.85;;;23.80;98.90;;;;;;4991666;28;20502;-63
2022/06/29 21:14:16;;;;;;;8.63;7.82;;;23.70;99.40;;;;;;4989445;28;20042;-63
2022/06/29 21:16:42;;;;;;;9.02;7.85;;;23.80;99.30;;;;;;4993149;28;20710;-64
2022/06/29 21:19:08;;;;;;;8.73;7.90;;;23.80;99.30;;;;;;4995343;28;20081;-64
2022/06/29 21:21:33;;;;;;;9.05;7.75;;;23.80;99.40;;;;;;4992902;28;20077;-64
2022/06/29 21:23:59;;;;;;;10.35;7.53;;;23.90;99.50;;;;;;4997972;28;20085;-64
2022/06/29 21:26:25;;;;;;;8.68;7.70;;;23.90;99.80;;;;;;4995156;28;20469;-63
2022/06/29 21:28:50;;;;;;;10.65;7.78;;;24.00;99.70;;;;;;4978055;28;20069;-64
2022/06/29 21:31:16;;;;;;;9.13;7.32;;;23.90;99.70;;;;;;4996434;28;20122;-64
2022/06/29 21:33:42;;;;;;;11.48;8.10;;;24.00;99.90;;;;;;4979523;28;20038;-64
2022/06/29 21:36:08;;;;;;;8.82;7.72;;;23.90;99.70;;;;;;4994300;28;20042;-63
2022/06/29 21:38:34;;;;;;;12.38;9.18;;;23.70;99.90;;;;;;4992913;28;20104;-64
2022/06/29 21:40:59;;;;;;;11.27;8.80;;;23.70;99.80;;;;;;4994196;28;20667;-63
2022/06/29 21:43:25;;;;;;;10.40;9.50;;;23.70;99.70;;;;;;4993393;28;20038;-63
2022/06/29 21:45:51;;;;;;;9.95;8.63;;;23.70;99.50;;;;;;4994393;28;20406;-63
2022/06/29 21:51:10;;;;;;;10.73;9.75;;;23.60;99.70;;;;;;4993286;28;20078;-63
2022/06/29 21:53:38;;;;;;;11.68;10.35;;;23.40;99.90;;;;;;4993739;28;20080;-63
2022/06/29 21:56:04;;;;;;;13.40;10.00;;;23.30;99.90;;;;;;4998620;28;20041;-64
2022/06/29 21:58:29;;;;;;;10.20;9.20;;;23.20;99.90;;;;;;4993909;28;20066;-64
2022/06/29 22:00:55;;;;;;;10.23;9.10;;;23.20;99.90;;;;;;4993521;28;20076;-63
2022/06/29 22:03:20;;;;;;;12.40;9.52;;;23.00;99.90;;;;;;4976363;28;20049;-63
2022/06/29 22:05:46;;;;;;;10.82;9.45;;;22.80;99.90;;;;;;4991101;28;20034;-64
2022/06/29 22:08:12;;;;;;;14.38;10.63;;;22.70;99.90;;;;;;4993762;28;20031;-63
2022/06/29 22:10:38;;;;;;;12.88;11.57;;;22.60;99.90;;;;;;4993279;28;20042;-63
2022/06/29 22:13:04;;;;;;;14.10;12.32;;;22.50;99.90;;;;;;4997074;28;20052;-63
2022/06/29 22:15:30;;;;;;;15.07;12.45;;;22.50;99.90;;;;;;4996275;28;20030;-64
2022/06/29 22:17:56;;;;;;;13.43;12.13;;;22.50;99.90;;;;;;4993417;28;20045;-64
2022/06/29 22:20:22;;;;;;;13.60;12.20;;;22.40;99.90;;;;;;4993275;28;20042;-63
2022/06/29 22:22:48;;;;;;;13.40;11.77;;;22.40;99.90;;;;;;4995743;28;20088;-63
2022/06/29 22:25:14;;;;;;;13.95;12.27;;;22.40;99.90;;;;;;4993065;28;20661;-63